sensor_id;sensor_type;location;lat;lon;timestamp;temperature;humidity
57753;DHT22;43583;53.132;6.574;2022-08-11T00:02:31;15.80;99.90
57753;DHT22;43583;53.132;6.574;2022-08-11T00:05:03;15.80;99.90
57753;DHT22;43583;53.132;6.574;2022-08-11T00:07:28;15.70;99.90
57753;DHT22;43583;53.132;6.574;2022-08-11T00:09:54;15.70;99.90
57753;DHT22;43583;53.132;6.574;2022-08-11T00:12:20;15.60;99.90
57753;DHT22;43583;53.132;6.574;2022-08-11T00:14:55;15.60;99.90
57753;DHT22;43583;53.132;6.574;2022-08-11T00:17:26;15.50;99.90
57753;DHT22;43583;53.132;6.574;2022-08-11T00:20:00;15.40;99.90
57753;DHT22;43583;53.132;6.574;2022-08-11T00:22:27;15.40;99.90
57753;DHT22;43583;53.132;6.574;2022-08-11T00:24:54;15.30;99.90
57753;DHT22;43583;53.132;6.574;2022-08-11T00:27:30;15.20;99.90
57753;DHT22;43583;53.132;6.574;2022-08-11T00:29:57;15.10;99.90
57753;DHT22;43583;53.132;6.574;2022-08-11T00:32:22;15.10;99.90
57753;DHT22;43583;53.132;6.574;2022-08-11T00:34:48;15.00;99.90
57753;DHT22;43583;53.132;6.574;2022-08-11T00:37:21;15.00;99.90
57753;DHT22;43583;53.132;6.574;2022-08-11T00:39:53;14.90;99.90
57753;DHT22;43583;53.132;6.574;2022-08-11T00:45:30;14.80;99.90
57753;DHT22;43583;53.132;6.574;2022-08-11T00:48:24;14.90;99.90
57753;DHT22;43583;53.132;6.574;2022-08-11T00:53:48;14.70;99.90
57753;DHT22;43583;53.132;6.574;2022-08-11T01:12:26;14.50;99.90
57753;DHT22;43583;53.132;6.574;2022-08-11T01:21:19;14.40;99.90
57753;DHT22;43583;53.132;6.574;2022-08-11T01:27:22;14.30;99.90
57753;DHT22;43583;53.132;6.574;2022-08-11T01:41:44;14.00;99.90
57753;DHT22;43583;53.132;6.574;2022-08-11T01:47:36;14.10;99.90
57753;DHT22;43583;53.132;6.574;2022-08-11T01:56:20;14.00;99.90
57753;DHT22;43583;53.132;6.574;2022-08-11T02:04:37;14.00;99.90
57753;DHT22;43583;53.132;6.574;2022-08-11T02:07:46;13.90;99.90
57753;DHT22;43583;53.132;6.574;2022-08-11T02:10:25;13.90;99.90
57753;DHT22;43583;53.132;6.574;2022-08-11T02:13:31;13.90;99.90
57753;DHT22;43583;53.132;6.574;2022-08-11T02:18:45;13.90;99.90
57753;DHT22;43583;53.132;6.574;2022-08-11T02:21:43;13.90;99.90
57753;DHT22;43583;53.132;6.574;2022-08-11T02:25:05;13.90;99.90
57753;DHT22;43583;53.132;6.574;2022-08-11T02:27:44;13.90;99.90
57753;DHT22;43583;53.132;6.574;2022-08-11T02:30:17;13.90;99.90
57753;DHT22;43583;53.132;6.574;2022-08-11T02:38:23;13.90;99.90
57753;DHT22;43583;53.132;6.574;2022-08-11T02:41:25;13.90;99.90
57753;DHT22;43583;53.132;6.574;2022-08-11T02:47:34;13.80;99.90
57753;DHT22;43583;53.132;6.574;2022-08-11T02:50:21;13.70;99.90
57753;DHT22;43583;53.132;6.574;2022-08-11T02:53:08;13.70;99.90
57753;DHT22;43583;53.132;6.574;2022-08-11T02:55:59;13.70;99.90
57753;DHT22;43583;53.132;6.574;2022-08-11T03:01:25;13.60;99.90
57753;DHT22;43583;53.132;6.574;2022-08-11T03:03:59;13.60;99.90
57753;DHT22;43583;53.132;6.574;2022-08-11T03:06:36;13.50;99.90
57753;DHT22;43583;53.132;6.574;2022-08-11T03:09:16;13.50;99.90
57753;DHT22;43583;53.132;6.574;2022-08-11T03:12:14;13.50;99.90
57753;DHT22;43583;53.132;6.574;2022-08-11T03:15:28;13.50;99.90
57753;DHT22;43583;53.132;6.574;2022-08-11T03:18:21;13.50;99.90
57753;DHT22;43583;53.132;6.574;2022-08-11T03:21:01;13.50;99.90
57753;DHT22;43583;53.132;6.574;2022-08-11T03:23:42;13.50;99.90
57753;DHT22;43583;53.132;6.574;2022-08-11T03:26:37;13.50;99.90
57753;DHT22;43583;53.132;6.574;2022-08-11T03:29:30;13.50;99.90
57753;DHT22;43583;53.132;6.574;2022-08-11T03:32:06;13.50;99.90
57753;DHT22;43583;53.132;6.574;2022-08-11T03:34:35;13.50;99.90
57753;DHT22;43583;53.132;6.574;2022-08-11T03:37:29;13.50;99.90
57753;DHT22;43583;53.132;6.574;2022-08-11T03:46:02;13.50;99.90
57753;DHT22;43583;53.132;6.574;2022-08-11T03:51:44;13.60;99.90
57753;DHT22;43583;53.132;6.574;2022-08-11T04:03:21;13.70;99.90
57753;DHT22;43583;53.132;6.574;2022-08-11T04:18:01;13.80;99.90
57753;DHT22;43583;53.132;6.574;2022-08-11T04:20:47;13.80;99.90
57753;DHT22;43583;53.132;6.574;2022-08-11T04:29:20;14.10;99.90
57753;DHT22;43583;53.132;6.574;2022-08-11T04:37:58;14.40;99.90
57753;DHT22;43583;53.132;6.574;2022-08-11T04:46:32;15.00;99.90
57753;DHT22;43583;53.132;6.574;2022-08-11T04:55:44;15.50;99.90
57753;DHT22;43583;53.132;6.574;2022-08-11T04:59:10;15.60;99.90
57753;DHT22;43583;53.132;6.574;2022-08-11T05:05:14;15.80;99.90
57753;DHT22;43583;53.132;6.574;2022-08-11T05:14:19;16.10;99.90
57753;DHT22;43583;53.132;6.574;2022-08-11T05:16:49;16.30;99.90
57753;DHT22;43583;53.132;6.574;2022-08-11T05:19:35;16.40;99.90
57753;DHT22;43583;53.132;6.574;2022-08-11T05:22:25;16.70;99.90
57753;DHT22;43583;53.132;6.574;2022-08-11T05:25:28;17.50;99.90
57753;DHT22;43583;53.132;6.574;2022-08-11T05:28:34;18.80;99.90
57753;DHT22;43583;53.132;6.574;2022-08-11T05:31:24;20.40;99.90
57753;DHT22;43583;53.132;6.574;2022-08-11T05:34:11;21.80;99.90
57753;DHT22;43583;53.132;6.574;2022-08-11T05:37:08;23.00;99.90
57753;DHT22;43583;53.132;6.574;2022-08-11T05:39:48;24.00;99.90
57753;DHT22;43583;53.132;6.574;2022-08-11T05:42:35;24.90;99.90
57753;DHT22;43583;53.132;6.574;2022-08-11T05:45:21;25.70;99.90
57753;DHT22;43583;53.132;6.574;2022-08-11T05:48:06;26.40;99.90
57753;DHT22;43583;53.132;6.574;2022-08-11T05:50:52;27.10;99.90
57753;DHT22;43583;53.132;6.574;2022-08-11T05:53:55;27.60;99.90
57753;DHT22;43583;53.132;6.574;2022-08-11T05:56:58;27.90;99.00
57753;DHT22;43583;53.132;6.574;2022-08-11T05:59:26;28.40;97.10
57753;DHT22;43583;53.132;6.574;2022-08-11T06:01:52;28.80;96.60
57753;DHT22;43583;53.132;6.574;2022-08-11T06:04:25;29.10;93.50
57753;DHT22;43583;53.132;6.574;2022-08-11T06:07:02;29.30;92.60
57753;DHT22;43583;53.132;6.574;2022-08-11T06:09:38;29.50;89.00
57753;DHT22;43583;53.132;6.574;2022-08-11T06:12:19;29.60;88.10
57753;DHT22;43583;53.132;6.574;2022-08-11T06:14:45;29.50;81.80
57753;DHT22;43583;53.132;6.574;2022-08-11T06:17:25;29.50;84.20
57753;DHT22;43583;53.132;6.574;2022-08-11T06:19:51;29.70;80.40
57753;DHT22;43583;53.132;6.574;2022-08-11T06:22:22;30.00;81.20
57753;DHT22;43583;53.132;6.574;2022-08-11T06:24:58;30.50;79.30
57753;DHT22;43583;53.132;6.574;2022-08-11T06:27:26;30.80;76.60
57753;DHT22;43583;53.132;6.574;2022-08-11T06:29:54;31.00;76.00
57753;DHT22;43583;53.132;6.574;2022-08-11T06:32:24;31.40;74.70
57753;DHT22;43583;53.132;6.574;2022-08-11T06:35:17;31.70;71.40
57753;DHT22;43583;53.132;6.574;2022-08-11T06:40:48;32.30;67.80
57753;DHT22;43583;53.132;6.574;2022-08-11T06:44:28;32.30;64.10
57753;DHT22;43583;53.132;6.574;2022-08-11T06:46:36;32.50;66.80
57753;DHT22;43583;53.132;6.574;2022-08-11T06:49:05;32.90;65.70
57753;DHT22;43583;53.132;6.574;2022-08-11T06:51:33;33.20;62.60
57753;DHT22;43583;53.132;6.574;2022-08-11T06:54:01;33.40;61.40
57753;DHT22;43583;53.132;6.574;2022-08-11T06:56:30;33.50;60.00
57753;DHT22;43583;53.132;6.574;2022-08-11T06:59:16;33.70;59.30
57753;DHT22;43583;53.132;6.574;2022-08-11T07:02:16;33.80;58.60
57753;DHT22;43583;53.132;6.574;2022-08-11T07:05:04;34.20;58.10
57753;DHT22;43583;53.132;6.574;2022-08-11T07:11:17;34.30;54.90
57753;DHT22;43583;53.132;6.574;2022-08-11T07:14:02;34.50;54.60
57753;DHT22;43583;53.132;6.574;2022-08-11T07:16:49;34.80;55.20
57753;DHT22;43583;53.132;6.574;2022-08-11T07:19:24;35.10;54.20
57753;DHT22;43583;53.132;6.574;2022-08-11T07:22:11;35.30;52.50
57753;DHT22;43583;53.132;6.574;2022-08-11T07:25:00;35.50;53.00
57753;DHT22;43583;53.132;6.574;2022-08-11T07:27:59;35.70;52.40
57753;DHT22;43583;53.132;6.574;2022-08-11T07:30:45;35.80;49.80
57753;DHT22;43583;53.132;6.574;2022-08-11T07:33:12;35.70;51.10
57753;DHT22;43583;53.132;6.574;2022-08-11T07:35:50;35.90;50.50
57753;DHT22;43583;53.132;6.574;2022-08-11T07:38:23;35.90;50.40
57753;DHT22;43583;53.132;6.574;2022-08-11T07:41:12;36.00;50.00
57753;DHT22;43583;53.132;6.574;2022-08-11T07:43:39;36.10;50.50
57753;DHT22;43583;53.132;6.574;2022-08-11T07:46:06;36.50;49.90
57753;DHT22;43583;53.132;6.574;2022-08-11T07:48:50;36.80;48.30
57753;DHT22;43583;53.132;6.574;2022-08-11T07:51:35;36.80;48.30
57753;DHT22;43583;53.132;6.574;2022-08-11T07:54:20;36.40;47.90
57753;DHT22;43583;53.132;6.574;2022-08-11T07:56:46;36.50;47.40
57753;DHT22;43583;53.132;6.574;2022-08-11T07:59:13;36.10;47.10
57753;DHT22;43583;53.132;6.574;2022-08-11T08:01:58;35.90;47.90
57753;DHT22;43583;53.132;6.574;2022-08-11T08:04:44;35.70;47.60
57753;DHT22;43583;53.132;6.574;2022-08-11T08:07:29;36.00;48.40
57753;DHT22;43583;53.132;6.574;2022-08-11T08:10:17;36.30;47.10
57753;DHT22;43583;53.132;6.574;2022-08-11T08:13:02;36.50;46.00
57753;DHT22;43583;53.132;6.574;2022-08-11T08:15:48;36.20;46.20
57753;DHT22;43583;53.132;6.574;2022-08-11T08:18:36;36.40;47.90
57753;DHT22;43583;53.132;6.574;2022-08-11T08:21:03;36.50;46.60
57753;DHT22;43583;53.132;6.574;2022-08-11T08:23:45;36.50;47.10
57753;DHT22;43583;53.132;6.574;2022-08-11T08:26:13;36.70;45.90
57753;DHT22;43583;53.132;6.574;2022-08-11T08:29:01;36.50;45.00
57753;DHT22;43583;53.132;6.574;2022-08-11T08:31:47;36.60;45.60
57753;DHT22;43583;53.132;6.574;2022-08-11T08:34:14;36.70;46.40
57753;DHT22;43583;53.132;6.574;2022-08-11T08:36:48;37.10;45.60
57753;DHT22;43583;53.132;6.574;2022-08-11T08:39:18;37.20;44.50
57753;DHT22;43583;53.132;6.574;2022-08-11T08:41:48;37.30;44.20
57753;DHT22;43583;53.132;6.574;2022-08-11T08:44:17;37.40;45.20
57753;DHT22;43583;53.132;6.574;2022-08-11T08:46:45;37.30;43.30
57753;DHT22;43583;53.132;6.574;2022-08-11T08:49:18;37.10;43.10
57753;DHT22;43583;53.132;6.574;2022-08-11T08:51:51;37.10;44.20
57753;DHT22;43583;53.132;6.574;2022-08-11T08:54:20;37.00;44.50
57753;DHT22;43583;53.132;6.574;2022-08-11T08:56:51;36.50;43.10
57753;DHT22;43583;53.132;6.574;2022-08-11T08:59:21;36.50;44.30
57753;DHT22;43583;53.132;6.574;2022-08-11T09:01:50;36.60;44.90
57753;DHT22;43583;53.132;6.574;2022-08-11T09:04:17;36.80;45.00
57753;DHT22;43583;53.132;6.574;2022-08-11T09:06:46;37.10;42.90
57753;DHT22;43583;53.132;6.574;2022-08-11T09:09:13;36.90;42.70
57753;DHT22;43583;53.132;6.574;2022-08-11T09:11:40;36.90;42.40
57753;DHT22;43583;53.132;6.574;2022-08-11T09:14:32;36.80;42.50
57753;DHT22;43583;53.132;6.574;2022-08-11T09:17:18;36.60;42.80
57753;DHT22;43583;53.132;6.574;2022-08-11T09:19:46;36.70;42.80
57753;DHT22;43583;53.132;6.574;2022-08-11T09:22:12;36.80;44.30
57753;DHT22;43583;53.132;6.574;2022-08-11T09:25:01;36.90;42.70
57753;DHT22;43583;53.132;6.574;2022-08-11T09:27:45;36.50;43.70
57753;DHT22;43583;53.132;6.574;2022-08-11T09:30:11;36.40;44.50
57753;DHT22;43583;53.132;6.574;2022-08-11T09:32:38;36.10;45.20
57753;DHT22;43583;53.132;6.574;2022-08-11T09:35:05;35.70;45.90
57753;DHT22;43583;53.132;6.574;2022-08-11T09:37:32;35.40;44.70
57753;DHT22;43583;53.132;6.574;2022-08-11T09:40:17;35.10;45.30
57753;DHT22;43583;53.132;6.574;2022-08-11T09:43:02;34.40;45.70
57753;DHT22;43583;53.132;6.574;2022-08-11T09:45:48;33.90;46.70
57753;DHT22;43583;53.132;6.574;2022-08-11T09:48:23;33.40;47.60
57753;DHT22;43583;53.132;6.574;2022-08-11T09:50:52;33.30;46.50
57753;DHT22;43583;53.132;6.574;2022-08-11T09:53:22;32.90;46.50
57753;DHT22;43583;53.132;6.574;2022-08-11T09:55:48;32.70;46.30
57753;DHT22;43583;53.132;6.574;2022-08-11T09:58:15;32.50;48.90
57753;DHT22;43583;53.132;6.574;2022-08-11T10:00:42;32.20;47.50
57753;DHT22;43583;53.132;6.574;2022-08-11T10:03:17;31.90;48.00
57753;DHT22;43583;53.132;6.574;2022-08-11T10:05:53;31.90;48.50
57753;DHT22;43583;53.132;6.574;2022-08-11T10:08:40;31.70;45.40
57753;DHT22;43583;53.132;6.574;2022-08-11T10:11:10;31.50;46.20
57753;DHT22;43583;53.132;6.574;2022-08-11T10:13:41;31.40;46.20
57753;DHT22;43583;53.132;6.574;2022-08-11T10:16:28;31.10;44.90
57753;DHT22;43583;53.132;6.574;2022-08-11T10:18:55;31.10;47.70
57753;DHT22;43583;53.132;6.574;2022-08-11T10:23:55;31.30;46.70
57753;DHT22;43583;53.132;6.574;2022-08-11T10:26:41;31.40;47.30
57753;DHT22;43583;53.132;6.574;2022-08-11T10:29:38;31.60;46.90
57753;DHT22;43583;53.132;6.574;2022-08-11T10:32:25;31.40;46.20
57753;DHT22;43583;53.132;6.574;2022-08-11T10:35:11;31.30;47.30
57753;DHT22;43583;53.132;6.574;2022-08-11T10:37:40;31.30;48.00
57753;DHT22;43583;53.132;6.574;2022-08-11T10:40:07;31.30;48.10
57753;DHT22;43583;53.132;6.574;2022-08-11T10:42:34;31.40;47.00
57753;DHT22;43583;53.132;6.574;2022-08-11T10:45:18;31.50;47.90
57753;DHT22;43583;53.132;6.574;2022-08-11T10:48:05;31.70;47.50
57753;DHT22;43583;53.132;6.574;2022-08-11T10:50:32;31.70;46.60
57753;DHT22;43583;53.132;6.574;2022-08-11T10:53:17;31.60;46.60
57753;DHT22;43583;53.132;6.574;2022-08-11T10:56:03;31.40;46.40
57753;DHT22;43583;53.132;6.574;2022-08-11T10:58:49;31.10;46.30
57753;DHT22;43583;53.132;6.574;2022-08-11T11:01:27;31.00;47.30
57753;DHT22;43583;53.132;6.574;2022-08-11T11:03:57;31.00;47.60
57753;DHT22;43583;53.132;6.574;2022-08-11T11:06:49;31.00;46.20
57753;DHT22;43583;53.132;6.574;2022-08-11T11:09:57;31.10;46.30
57753;DHT22;43583;53.132;6.574;2022-08-11T11:15:20;31.20;47.20
57753;DHT22;43583;53.132;6.574;2022-08-11T11:18:14;31.20;45.70
57753;DHT22;43583;53.132;6.574;2022-08-11T11:26:59;30.90;46.40
57753;DHT22;43583;53.132;6.574;2022-08-11T11:35:15;30.70;47.10
57753;DHT22;43583;53.132;6.574;2022-08-11T11:37:44;30.80;47.90
57753;DHT22;43583;53.132;6.574;2022-08-11T11:40:15;30.80;46.10
57753;DHT22;43583;53.132;6.574;2022-08-11T11:42:43;30.90;46.20
57753;DHT22;43583;53.132;6.574;2022-08-11T11:45:13;30.80;45.50
57753;DHT22;43583;53.132;6.574;2022-08-11T11:47:40;30.80;44.70
57753;DHT22;43583;53.132;6.574;2022-08-11T11:50:07;30.90;46.80
57753;DHT22;43583;53.132;6.574;2022-08-11T11:52:33;30.80;47.00
57753;DHT22;43583;53.132;6.574;2022-08-11T11:54:59;30.80;45.20
57753;DHT22;43583;53.132;6.574;2022-08-11T11:57:26;30.70;44.50
57753;DHT22;43583;53.132;6.574;2022-08-11T12:00:12;30.70;44.30
57753;DHT22;43583;53.132;6.574;2022-08-11T12:02:59;30.70;45.20
57753;DHT22;43583;53.132;6.574;2022-08-11T12:05:26;30.70;45.70
57753;DHT22;43583;53.132;6.574;2022-08-11T12:07:53;30.70;46.20
57753;DHT22;43583;53.132;6.574;2022-08-11T12:10:51;30.70;46.00
57753;DHT22;43583;53.132;6.574;2022-08-11T12:13:46;30.80;46.00
57753;DHT22;43583;53.132;6.574;2022-08-11T12:16:16;30.60;43.90
57753;DHT22;43583;53.132;6.574;2022-08-11T12:18:45;30.60;45.10
57753;DHT22;43583;53.132;6.574;2022-08-11T12:21:13;30.70;46.40
57753;DHT22;43583;53.132;6.574;2022-08-11T12:23:40;30.70;46.60
57753;DHT22;43583;53.132;6.574;2022-08-11T12:26:25;30.80;46.40
57753;DHT22;43583;53.132;6.574;2022-08-11T12:29:11;30.70;46.40
57753;DHT22;43583;53.132;6.574;2022-08-11T12:31:39;30.70;47.70
57753;DHT22;43583;53.132;6.574;2022-08-11T12:34:08;30.60;47.20
57753;DHT22;43583;53.132;6.574;2022-08-11T12:36:43;30.50;46.80
57753;DHT22;43583;53.132;6.574;2022-08-11T12:39:12;30.50;46.60
57753;DHT22;43583;53.132;6.574;2022-08-11T12:41:42;30.40;46.20
57753;DHT22;43583;53.132;6.574;2022-08-11T12:44:27;30.40;47.50
57753;DHT22;43583;53.132;6.574;2022-08-11T12:47:15;30.50;46.80
57753;DHT22;43583;53.132;6.574;2022-08-11T12:49:46;30.40;46.40
57753;DHT22;43583;53.132;6.574;2022-08-11T12:52:34;30.60;47.30
57753;DHT22;43583;53.132;6.574;2022-08-11T12:55:12;30.70;47.10
57753;DHT22;43583;53.132;6.574;2022-08-11T12:57:59;30.70;46.10
57753;DHT22;43583;53.132;6.574;2022-08-11T13:00:44;30.70;46.00
57753;DHT22;43583;53.132;6.574;2022-08-11T13:03:31;30.60;45.50
57753;DHT22;43583;53.132;6.574;2022-08-11T13:06:16;30.50;45.60
57753;DHT22;43583;53.132;6.574;2022-08-11T13:08:44;30.50;46.70
57753;DHT22;43583;53.132;6.574;2022-08-11T13:11:11;30.40;46.50
57753;DHT22;43583;53.132;6.574;2022-08-11T13:13:56;30.40;46.10
57753;DHT22;43583;53.132;6.574;2022-08-11T13:16:29;30.40;46.20
57753;DHT22;43583;53.132;6.574;2022-08-11T13:18:58;30.40;46.50
57753;DHT22;43583;53.132;6.574;2022-08-11T13:21:25;30.40;45.90
57753;DHT22;43583;53.132;6.574;2022-08-11T13:23:52;30.50;46.20
57753;DHT22;43583;53.132;6.574;2022-08-11T13:26:19;30.40;46.20
57753;DHT22;43583;53.132;6.574;2022-08-11T13:28:45;30.40;46.30
57753;DHT22;43583;53.132;6.574;2022-08-11T13:31:10;30.40;46.50
57753;DHT22;43583;53.132;6.574;2022-08-11T13:34:02;30.50;47.60
57753;DHT22;43583;53.132;6.574;2022-08-11T13:36:32;30.40;46.60
57753;DHT22;43583;53.132;6.574;2022-08-11T13:38:58;30.40;47.70
57753;DHT22;43583;53.132;6.574;2022-08-11T13:41:25;30.30;47.70
57753;DHT22;43583;53.132;6.574;2022-08-11T13:44:08;30.20;46.40
57753;DHT22;43583;53.132;6.574;2022-08-11T13:46:35;30.20;47.30
57753;DHT22;43583;53.132;6.574;2022-08-11T13:49:01;30.20;46.40
57753;DHT22;43583;53.132;6.574;2022-08-11T13:51:28;30.30;46.90
57753;DHT22;43583;53.132;6.574;2022-08-11T13:54:05;30.30;47.50
57753;DHT22;43583;53.132;6.574;2022-08-11T13:56:34;30.30;46.50
57753;DHT22;43583;53.132;6.574;2022-08-11T13:59:01;30.30;47.10
57753;DHT22;43583;53.132;6.574;2022-08-11T14:01:30;30.30;46.60
57753;DHT22;43583;53.132;6.574;2022-08-11T14:04:07;30.30;47.50
57753;DHT22;43583;53.132;6.574;2022-08-11T14:06:34;30.20;47.30
57753;DHT22;43583;53.132;6.574;2022-08-11T14:09:02;30.20;46.90
57753;DHT22;43583;53.132;6.574;2022-08-11T14:11:29;30.20;47.20
57753;DHT22;43583;53.132;6.574;2022-08-11T14:14:20;30.30;46.60
57753;DHT22;43583;53.132;6.574;2022-08-11T14:16:47;30.20;46.70
57753;DHT22;43583;53.132;6.574;2022-08-11T14:19:15;30.20;46.40
57753;DHT22;43583;53.132;6.574;2022-08-11T14:21:46;30.20;46.70
57753;DHT22;43583;53.132;6.574;2022-08-11T14:25:05;30.10;46.70
57753;DHT22;43583;53.132;6.574;2022-08-11T14:27:23;30.00;47.20
57753;DHT22;43583;53.132;6.574;2022-08-11T14:29:54;30.00;47.70
57753;DHT22;43583;53.132;6.574;2022-08-11T14:32:20;30.00;47.40
57753;DHT22;43583;53.132;6.574;2022-08-11T14:34:47;30.00;48.30
57753;DHT22;43583;53.132;6.574;2022-08-11T14:37:21;30.00;48.80
57753;DHT22;43583;53.132;6.574;2022-08-11T14:39:57;30.10;48.80
57753;DHT22;43583;53.132;6.574;2022-08-11T14:42:23;30.00;48.40
57753;DHT22;43583;53.132;6.574;2022-08-11T14:45:10;30.00;47.90
57753;DHT22;43583;53.132;6.574;2022-08-11T14:47:58;29.90;48.00
57753;DHT22;43583;53.132;6.574;2022-08-11T14:50:30;29.90;47.90
57753;DHT22;43583;53.132;6.574;2022-08-11T14:53:14;29.80;48.20
57753;DHT22;43583;53.132;6.574;2022-08-11T14:55:41;29.70;48.30
57753;DHT22;43583;53.132;6.574;2022-08-11T14:58:28;29.70;48.30
57753;DHT22;43583;53.132;6.574;2022-08-11T15:00:57;29.70;49.60
57753;DHT22;43583;53.132;6.574;2022-08-11T15:03:25;29.60;48.70
57753;DHT22;43583;53.132;6.574;2022-08-11T15:05:55;29.60;49.10
57753;DHT22;43583;53.132;6.574;2022-08-11T15:08:21;29.50;48.70
57753;DHT22;43583;53.132;6.574;2022-08-11T15:11:12;29.40;48.60
57753;DHT22;43583;53.132;6.574;2022-08-11T15:13:58;29.40;48.60
57753;DHT22;43583;53.132;6.574;2022-08-11T15:16:26;29.30;48.60
57753;DHT22;43583;53.132;6.574;2022-08-11T15:19:12;29.20;49.40
57753;DHT22;43583;53.132;6.574;2022-08-11T15:21:38;29.10;49.90
57753;DHT22;43583;53.132;6.574;2022-08-11T15:24:23;29.00;50.90
57753;DHT22;43583;53.132;6.574;2022-08-11T15:26:49;29.00;50.80
57753;DHT22;43583;53.132;6.574;2022-08-11T15:29:37;29.00;51.00
57753;DHT22;43583;53.132;6.574;2022-08-11T15:32:34;28.90;50.80
57753;DHT22;43583;53.132;6.574;2022-08-11T15:35:20;28.80;51.60
57753;DHT22;43583;53.132;6.574;2022-08-11T15:38:06;28.70;51.20
57753;DHT22;43583;53.132;6.574;2022-08-11T15:40:38;28.70;51.50
57753;DHT22;43583;53.132;6.574;2022-08-11T15:43:27;28.60;51.80
57753;DHT22;43583;53.132;6.574;2022-08-11T15:48:55;28.50;52.10
57753;DHT22;43583;53.132;6.574;2022-08-11T15:51:41;28.50;52.90
57753;DHT22;43583;53.132;6.574;2022-08-11T15:54:09;28.40;51.70
57753;DHT22;43583;53.132;6.574;2022-08-11T15:56:39;28.40;51.70
57753;DHT22;43583;53.132;6.574;2022-08-11T15:59:07;28.30;52.20
57753;DHT22;43583;53.132;6.574;2022-08-11T16:01:53;28.30;52.00
57753;DHT22;43583;53.132;6.574;2022-08-11T16:04:56;28.20;52.70
57753;DHT22;43583;53.132;6.574;2022-08-11T16:07:25;28.10;52.90
57753;DHT22;43583;53.132;6.574;2022-08-11T16:10:03;28.10;53.50
57753;DHT22;43583;53.132;6.574;2022-08-11T16:12:56;28.10;54.10
57753;DHT22;43583;53.132;6.574;2022-08-11T16:15:32;28.00;53.90
57753;DHT22;43583;53.132;6.574;2022-08-11T16:18:23;27.90;54.60
57753;DHT22;43583;53.132;6.574;2022-08-11T16:21:07;27.90;55.20
57753;DHT22;43583;53.132;6.574;2022-08-11T16:23:36;27.80;54.90
57753;DHT22;43583;53.132;6.574;2022-08-11T16:26:03;27.70;55.30
57753;DHT22;43583;53.132;6.574;2022-08-11T16:28:30;27.80;55.40
57753;DHT22;43583;53.132;6.574;2022-08-11T16:30:58;27.60;55.00
57753;DHT22;43583;53.132;6.574;2022-08-11T16:33:24;27.60;55.60
57753;DHT22;43583;53.132;6.574;2022-08-11T16:35:51;27.50;56.00
57753;DHT22;43583;53.132;6.574;2022-08-11T16:38:37;27.50;56.30
57753;DHT22;43583;53.132;6.574;2022-08-11T16:41:10;27.40;56.50
57753;DHT22;43583;53.132;6.574;2022-08-11T16:43:42;27.30;56.70
57753;DHT22;43583;53.132;6.574;2022-08-11T16:46:29;27.30;57.20
57753;DHT22;43583;53.132;6.574;2022-08-11T16:49:20;27.20;57.00
57753;DHT22;43583;53.132;6.574;2022-08-11T16:51:49;27.10;57.30
57753;DHT22;43583;53.132;6.574;2022-08-11T16:54:15;27.10;57.70
57753;DHT22;43583;53.132;6.574;2022-08-11T16:56:45;27.00;57.90
57753;DHT22;43583;53.132;6.574;2022-08-11T16:59:33;27.00;58.70
57753;DHT22;43583;53.132;6.574;2022-08-11T17:02:15;27.00;58.90
57753;DHT22;43583;53.132;6.574;2022-08-11T17:05:02;26.90;58.80
57753;DHT22;43583;53.132;6.574;2022-08-11T17:07:49;26.80;59.70
57753;DHT22;43583;53.132;6.574;2022-08-11T17:10:38;26.80;59.80
57753;DHT22;43583;53.132;6.574;2022-08-11T17:13:29;26.80;60.00
57753;DHT22;43583;53.132;6.574;2022-08-11T17:16:00;26.70;60.00
57753;DHT22;43583;53.132;6.574;2022-08-11T17:23:54;26.60;60.50
57753;DHT22;43583;53.132;6.574;2022-08-11T17:26:28;26.60;60.90
57753;DHT22;43583;53.132;6.574;2022-08-11T17:29:17;26.50;60.80
57753;DHT22;43583;53.132;6.574;2022-08-11T17:31:45;26.50;61.10
57753;DHT22;43583;53.132;6.574;2022-08-11T17:34:31;26.40;61.20
57753;DHT22;43583;53.132;6.574;2022-08-11T17:37:16;26.40;61.30
57753;DHT22;43583;53.132;6.574;2022-08-11T17:39:43;26.30;61.70
57753;DHT22;43583;53.132;6.574;2022-08-11T17:42:10;26.30;61.90
57753;DHT22;43583;53.132;6.574;2022-08-11T17:44:55;26.30;62.40
57753;DHT22;43583;53.132;6.574;2022-08-11T17:47:40;26.20;63.00
57753;DHT22;43583;53.132;6.574;2022-08-11T17:50:25;26.10;63.40
57753;DHT22;43583;53.132;6.574;2022-08-11T17:52:52;26.10;63.80
57753;DHT22;43583;53.132;6.574;2022-08-11T17:55:37;26.00;63.90
57753;DHT22;43583;53.132;6.574;2022-08-11T17:58:24;25.90;64.30
57753;DHT22;43583;53.132;6.574;2022-08-11T18:01:10;25.90;64.10
57753;DHT22;43583;53.132;6.574;2022-08-11T18:03:37;25.80;64.30
57753;DHT22;43583;53.132;6.574;2022-08-11T18:06:08;25.70;64.10
57753;DHT22;43583;53.132;6.574;2022-08-11T18:08:38;25.60;64.30
57753;DHT22;43583;53.132;6.574;2022-08-11T18:11:24;25.60;64.20
57753;DHT22;43583;53.132;6.574;2022-08-11T18:14:12;25.50;64.10
57753;DHT22;43583;53.132;6.574;2022-08-11T18:16:57;25.40;64.70
57753;DHT22;43583;53.132;6.574;2022-08-11T18:19:41;25.30;64.80
57753;DHT22;43583;53.132;6.574;2022-08-11T18:22:28;25.20;65.00
57753;DHT22;43583;53.132;6.574;2022-08-11T18:25:19;25.10;65.20
57753;DHT22;43583;53.132;6.574;2022-08-11T18:28:06;25.00;65.90
57753;DHT22;43583;53.132;6.574;2022-08-11T18:30:52;24.90;66.00
57753;DHT22;43583;53.132;6.574;2022-08-11T18:33:40;24.90;66.40
57753;DHT22;43583;53.132;6.574;2022-08-11T18:36:30;24.70;66.90
57753;DHT22;43583;53.132;6.574;2022-08-11T18:39:15;24.60;67.30
57753;DHT22;43583;53.132;6.574;2022-08-11T18:42:06;24.50;67.80
57753;DHT22;43583;53.132;6.574;2022-08-11T18:44:52;24.40;68.30
57753;DHT22;43583;53.132;6.574;2022-08-11T18:47:38;24.20;69.20
57753;DHT22;43583;53.132;6.574;2022-08-11T18:50:23;24.10;69.80
57753;DHT22;43583;53.132;6.574;2022-08-11T18:53:09;24.00;70.30
57753;DHT22;43583;53.132;6.574;2022-08-11T18:55:56;23.90;70.90
57753;DHT22;43583;53.132;6.574;2022-08-11T18:58:42;23.80;71.90
57753;DHT22;43583;53.132;6.574;2022-08-11T19:01:29;23.70;72.40
57753;DHT22;43583;53.132;6.574;2022-08-11T19:04:15;23.70;73.10
57753;DHT22;43583;53.132;6.574;2022-08-11T19:07:00;23.60;74.20
57753;DHT22;43583;53.132;6.574;2022-08-11T19:09:46;23.50;75.00
57753;DHT22;43583;53.132;6.574;2022-08-11T19:12:36;23.40;75.90
57753;DHT22;43583;53.132;6.574;2022-08-11T19:15:21;23.40;76.50
57753;DHT22;43583;53.132;6.574;2022-08-11T19:18:09;23.30;77.50
57753;DHT22;43583;53.132;6.574;2022-08-11T19:20:55;23.20;78.50
57753;DHT22;43583;53.132;6.574;2022-08-11T19:23:44;23.10;79.50
57753;DHT22;43583;53.132;6.574;2022-08-11T19:26:32;23.00;80.60
57753;DHT22;43583;53.132;6.574;2022-08-11T19:29:18;22.90;81.70
57753;DHT22;43583;53.132;6.574;2022-08-11T19:32:04;22.80;83.10